createdAt,value
2022-11-09T00:02:47.588Z,100413.75
2022-11-09T00:05:59.538Z,100410.41
2022-11-09T00:09:07.894Z,100403.53
2022-11-09T00:12:11.384Z,100405.91
2022-11-09T00:15:14.395Z,100409.47
2022-11-09T00:18:17.363Z,100405.31
2022-11-09T00:21:25.541Z,100392.03
2022-11-09T00:24:30.128Z,100390.25
2022-11-09T00:27:33.068Z,100384.69
2022-11-09T00:30:36.082Z,100388.59
2022-11-09T00:33:39.691Z,100378.59
2022-11-09T00:36:44.722Z,100377.56
2022-11-09T00:39:47.660Z,100374.50
2022-11-09T00:42:50.888Z,100371.06
2022-11-09T00:45:53.837Z,100368.59
2022-11-09T00:48:57.352Z,100363.59
2022-11-09T00:52:01.800Z,100373.78
2022-11-09T00:55:06.519Z,100363.63
2022-11-09T00:58:09.449Z,100373.53
2022-11-09T01:01:15.324Z,100370.97
2022-11-09T01:04:19.531Z,100370.50
2022-11-09T01:07:23.967Z,100381.66
2022-11-09T01:10:26.904Z,100378.31
2022-11-09T01:13:30.439Z,100382.13
2022-11-09T01:16:33.390Z,100382.22
2022-11-09T01:19:36.452Z,100381.41
2022-11-09T01:22:40.722Z,100380.69
2022-11-09T01:25:44.727Z,100386.03
2022-11-09T01:28:48.138Z,100371.72
2022-11-09T01:31:51.050Z,100378.78
2022-11-09T01:34:54.158Z,100377.97
2022-11-09T01:37:58.422Z,100382.56
2022-11-09T01:41:01.722Z,100377.34
2022-11-09T01:44:08.852Z,100374.19
2022-11-09T01:47:25.957Z,100389.69
2022-11-09T01:50:37.734Z,100382.53
2022-11-09T01:53:47.414Z,100387.19
2022-11-09T01:56:57.496Z,100380.69
2022-11-09T02:00:07.394Z,100387.16
2022-11-09T02:03:23.103Z,100378.38
2022-11-09T02:06:29.949Z,100365.25
2022-11-09T02:09:42.190Z,100357.22
2022-11-09T02:12:46.464Z,100354.59
2022-11-09T02:15:51.041Z,100352.66
2022-11-09T02:18:56.637Z,100352.66
2022-11-09T02:22:02.507Z,100340.66
2022-11-09T02:25:09.814Z,100339.44
2022-11-09T02:28:15.359Z,100324.63
2022-11-09T02:31:20.456Z,100324.75
2022-11-09T02:34:26.160Z,100328.28
2022-11-09T02:37:34.531Z,100326.22
2022-11-09T02:40:41.854Z,100326.13
2022-11-09T02:43:45.142Z,100321.16
2022-11-09T02:46:48.441Z,100320.81
2022-11-09T02:49:51.714Z,100324.38
2022-11-09T02:52:57.457Z,100310.63
2022-11-09T02:56:00.609Z,100314.34
2022-11-09T02:59:04.254Z,100314.66
2022-11-09T03:02:08.687Z,100312.88
2022-11-09T03:05:11.974Z,100322.25
2022-11-09T03:08:19.760Z,100327.41
2022-11-09T03:11:23.876Z,100321.75
2022-11-09T03:14:26.987Z,100313.50
2022-11-09T03:17:34.253Z,100315.97
2022-11-09T03:20:37.302Z,100309.75
2022-11-09T03:23:42.047Z,100306.22
2022-11-09T03:26:45.081Z,100306.84
2022-11-09T03:29:48.799Z,100306.72
2022-11-09T03:32:53.838Z,100311.47
2022-11-09T03:35:57.201Z,100306.25
2022-11-09T03:39:01.656Z,100316.44
2022-11-09T03:42:04.956Z,100314.59
2022-11-09T03:45:09.641Z,100324.81
2022-11-09T03:48:12.604Z,100334.16
2022-11-09T03:51:15.896Z,100345.66
2022-11-09T03:54:20.846Z,100343.41
2022-11-09T03:57:23.834Z,100352.53
2022-11-09T04:00:26.771Z,100359.06
2022-11-09T04:03:30.539Z,100376.47
2022-11-09T04:06:33.570Z,100385.81
2022-11-09T04:09:37.990Z,100395.41
2022-11-09T04:12:40.921Z,100395.66
2022-11-09T04:15:44.563Z,100370.44
2022-11-09T04:18:47.478Z,100347.56
2022-11-09T04:21:50.830Z,100339.25
2022-11-09T04:24:55.467Z,100329.44
2022-11-09T04:27:59.693Z,100322.56
2022-11-09T04:31:03.149Z,100310.38
2022-11-09T04:34:06.109Z,100302.56
2022-11-09T04:37:09.108Z,100294.28
2022-11-09T04:40:14.263Z,100302.09
2022-11-09T04:43:17.380Z,100294.97
2022-11-09T04:46:20.463Z,100295.72
2022-11-09T04:49:23.899Z,100292.97
2022-11-09T04:52:26.815Z,100283.50
2022-11-09T04:55:31.179Z,100285.53
2022-11-09T04:58:34.514Z,100267.41
2022-11-09T05:01:37.459Z,100256.19
2022-11-09T05:04:40.406Z,100261.72
2022-11-09T05:07:43.538Z,100256.88
2022-11-09T05:10:47.782Z,100248.94
2022-11-09T05:13:51.910Z,100246.72
2022-11-09T05:16:55.177Z,100237.47
2022-11-09T05:19:58.116Z,100223.50
2022-11-09T05:23:19.633Z,100220.91
2022-11-09T05:26:24.381Z,100219.13
2022-11-09T05:29:27.316Z,100216.06
2022-11-09T05:32:30.242Z,100221.13
2022-11-09T05:35:34.761Z,100216.53
2022-11-09T05:38:37.685Z,100206.94
2022-11-09T05:41:43.814Z,100207.53
2022-11-09T05:44:46.752Z,100208.69
2022-11-09T05:47:50.127Z,100211.19
2022-11-09T05:50:53.062Z,100207.41
2022-11-09T05:53:59.304Z,100211.91
2022-11-09T05:57:03.897Z,100200.53
2022-11-09T06:00:11.060Z,100195.47
2022-11-09T06:03:15.951Z,100206.78
2022-11-09T06:06:19.015Z,100208.69
2022-11-09T06:09:21.960Z,100199.13
2022-11-09T06:12:26.189Z,100195.81
2022-11-09T06:15:29.765Z,100195.56
2022-11-09T06:18:34.842Z,100207.66
2022-11-09T06:21:37.839Z,100207.66
2022-11-09T06:24:41.188Z,100205.97
2022-11-09T06:27:45.451Z,100204.31
2022-11-09T06:30:48.468Z,100207.66
2022-11-09T06:33:51.808Z,100210.94
2022-11-09T06:36:55.070Z,100207.66
2022-11-09T06:39:57.992Z,100209.03
2022-11-09T06:43:02.475Z,100208.81
2022-11-09T06:46:06.608Z,100206.44
2022-11-09T06:49:09.627Z,100207.84
2022-11-09T06:52:12.577Z,100211.16
2022-11-09T06:55:15.736Z,100221.81
2022-11-09T06:58:20.789Z,100220.66
2022-11-09T07:01:28.592Z,100223.25
2022-11-09T07:04:31.594Z,100234.38
2022-11-09T07:07:34.971Z,100234.00
2022-11-09T07:10:38.441Z,100235.66
2022-11-09T07:13:43.080Z,100236.13
2022-11-09T07:16:46.060Z,100230.09
2022-11-09T07:19:48.992Z,100227.22
2022-11-09T07:22:51.937Z,100223.78
2022-11-09T07:25:55.209Z,100216.56
2022-11-09T07:28:59.459Z,100187.78
2022-11-09T07:32:02.382Z,100197.38
2022-11-09T07:35:07.597Z,100213.72
2022-11-09T07:38:10.616Z,100197.16
2022-11-09T07:41:13.576Z,100194.41
2022-11-09T07:44:18.787Z,100193.31
2022-11-09T07:47:22.134Z,100182.06
2022-11-09T07:50:25.280Z,100180.28
2022-11-09T07:53:28.241Z,100207.06
2022-11-09T07:56:31.202Z,100232.03
2022-11-09T07:59:35.497Z,100239.50
2022-11-09T08:02:38.469Z,100242.84
2022-11-09T08:05:41.622Z,100240.66
2022-11-09T08:08:44.634Z,100230.13
2022-11-09T08:11:47.742Z,100233.56
2022-11-09T08:14:52.035Z,100237.94
2022-11-09T08:17:55.478Z,100226.69
2022-11-09T08:20:58.448Z,100225.75
2022-11-09T08:24:01.385Z,100234.03
2022-11-09T08:27:04.316Z,100234.97
2022-11-09T08:30:14.336Z,100226.19
2022-11-09T08:33:17.426Z,100226.88
2022-11-09T08:36:20.596Z,100220.47
2022-11-09T08:39:23.761Z,100219.53
2022-11-09T08:42:26.747Z,100215.13
2022-11-09T08:45:33.857Z,100227.34
2022-11-09T08:48:36.855Z,100233.53
2022-11-09T08:51:39.867Z,100245.81
2022-11-09T08:54:45.456Z,100251.72
2022-11-09T08:57:48.508Z,100251.72
2022-11-09T09:00:52.902Z,100254.19
2022-11-09T09:03:55.933Z,100259.06
2022-11-09T09:07:00.272Z,100258.69
2022-11-09T09:10:03.637Z,100251.41
2022-11-09T09:13:06.718Z,100259.69
2022-11-09T09:16:16.370Z,100276.53
2022-11-09T09:19:19.316Z,100274.59
2022-11-09T09:22:22.349Z,100289.09
2022-11-09T09:25:25.508Z,100285.53
2022-11-09T09:28:28.757Z,100280.06
2022-11-09T09:31:33.091Z,100279.56
2022-11-09T09:34:36.044Z,100285.09
2022-11-09T09:37:39.240Z,100288.38
2022-11-09T09:40:55.930Z,100302.63
2022-11-09T09:44:10.015Z,100310.63
2022-11-09T09:47:20.266Z,100328.50
2022-11-09T09:50:27.594Z,100334.44
2022-11-09T09:53:36.755Z,100338.69
2022-11-09T09:56:43.304Z,100336.28
2022-11-09T09:59:50.962Z,100346.97
2022-11-09T10:02:56.213Z,100360.47
2022-11-09T10:06:10.365Z,100353.34
2022-11-09T10:09:29.562Z,100360.91
2022-11-09T10:12:42.746Z,100363.66
2022-11-09T10:15:53.925Z,100371.50
2022-11-09T10:19:26.782Z,100363.28
2022-11-09T10:22:40.661Z,100363.84
2022-11-09T10:26:03.756Z,100366.06
2022-11-09T10:29:24.064Z,100365.84
2022-11-09T10:32:32.767Z,100357.47
2022-11-09T10:35:42.165Z,100357.63
2022-11-09T10:38:51.321Z,100351.28
2022-11-09T10:42:13.261Z,100330.59
2022-11-09T10:45:37.374Z,100336.94
2022-11-09T10:49:19.879Z,100335.94
2022-11-09T10:52:47.245Z,100344.72
2022-11-09T10:56:20.711Z,100351.13
2022-11-09T10:59:50.077Z,100353.91
2022-11-09T11:03:16.716Z,100374.56
2022-11-09T11:06:38.765Z,100382.03
2022-11-09T11:10:12.159Z,100393.59
2022-11-09T11:13:33.912Z,100404.47
2022-11-09T11:16:56.201Z,100430.00
2022-11-09T11:20:31.174Z,100430.66
2022-11-09T11:24:15.914Z,100441.81
2022-11-09T11:27:44.434Z,100446.28
2022-11-09T11:31:11.362Z,100451.13
2022-11-09T11:34:58.650Z,100455.78
2022-11-09T11:38:28.655Z,100454.06
2022-11-09T11:42:08.083Z,100464.16
2022-11-09T11:45:41.103Z,100451.84
2022-11-09T11:49:48.473Z,100449.72
2022-11-09T11:53:24.577Z,100435.16
2022-11-09T11:56:51.122Z,100428.16
2022-11-09T12:00:16.148Z,100431.72
2022-11-09T12:04:02.716Z,100433.00
2022-11-09T12:07:35.052Z,100431.22
2022-11-09T12:11:04.954Z,100431.53
2022-11-09T12:14:44.284Z,100422.44
2022-11-09T12:18:17.602Z,100418.06
2022-11-09T12:21:47.424Z,100428.66
2022-11-09T12:25:20.597Z,100435.16
2022-11-09T12:29:06.918Z,100427.63
2022-11-09T12:32:39.738Z,100430.38
2022-11-09T12:36:07.675Z,100430.06
2022-11-09T12:39:37.664Z,100424.72
2022-11-09T12:43:05.513Z,100431.81
2022-11-09T12:46:37.866Z,100429.34
2022-11-09T12:50:00.004Z,100431.75
2022-11-09T12:54:32.163Z,100417.91
2022-11-09T12:58:00.587Z,100430.41
2022-11-09T13:01:46.260Z,100438.53
2022-11-09T13:05:32.184Z,100433.59
2022-11-09T13:09:02.842Z,100413.09
2022-11-09T13:12:35.690Z,100426.50
2022-11-09T13:16:33.917Z,100429.50
2022-11-09T13:19:56.978Z,100427.56
2022-11-09T13:23:54.698Z,100426.56
2022-11-09T13:27:47.037Z,100420.75
2022-11-09T13:31:11.621Z,100429.19
2022-11-09T13:34:46.719Z,100430.03
2022-11-09T13:38:16.995Z,100436.81
2022-11-09T13:41:44.395Z,100431.03
2022-11-09T13:45:37.634Z,100436.06
2022-11-09T13:49:00.647Z,100436.78
2022-11-09T13:52:51.718Z,100433.63
2022-11-09T13:56:23.543Z,100439.03
2022-11-09T13:59:50.131Z,100427.16
2022-11-09T14:03:20.857Z,100422.50
2022-11-09T14:06:43.875Z,100419.75
2022-11-09T14:10:25.281Z,100420.59
2022-11-09T14:14:09.539Z,100415.78
2022-11-09T14:17:43.212Z,100423.06
2022-11-09T14:21:34.130Z,100423.63
2022-11-09T14:24:57.187Z,100419.09
2022-11-09T14:28:24.234Z,100419.09
2022-11-09T14:31:46.442Z,100419.78
2022-11-09T14:35:25.939Z,100410.13
2022-11-09T14:38:49.349Z,100408.59
2022-11-09T14:42:20.466Z,100415.38
2022-11-09T14:45:50.391Z,100413.16
2022-11-09T14:49:13.910Z,100404.06
2022-11-09T14:52:35.990Z,100399.78
2022-11-09T14:56:03.536Z,100382.84
2022-11-09T14:59:32.336Z,100382.72
2022-11-09T15:02:58.102Z,100369.88
2022-11-09T15:06:20.101Z,100374.69
2022-11-09T15:09:45.790Z,100372.34
2022-11-09T15:13:07.678Z,100372.63
2022-11-09T15:16:32.678Z,100369.28
2022-11-09T15:19:57.666Z,100365.00
2022-11-09T15:23:39.329Z,100359.91
2022-11-09T15:27:01.171Z,100356.28
2022-11-09T15:30:32.479Z,100337.97
2022-11-09T15:33:57.536Z,100338.13
2022-11-09T15:37:31.806Z,100345.19
2022-11-09T15:40:55.842Z,100336.50
2022-11-09T15:44:17.821Z,100339.81
2022-11-09T15:47:39.741Z,100340.69
2022-11-09T15:51:02.868Z,100348.06
2022-11-09T15:54:25.683Z,100351.59
2022-11-09T15:57:47.129Z,100350.16
2022-11-09T16:01:11.012Z,100348.81
2022-11-09T16:04:32.628Z,100348.13
2022-11-09T16:07:56.215Z,100345.63
2022-11-09T16:11:18.251Z,100337.56
2022-11-09T16:14:40.342Z,100328.91
2022-11-09T16:18:01.982Z,100319.84
2022-11-09T16:21:24.686Z,100326.72
2022-11-09T16:24:48.320Z,100329.19
2022-11-09T16:28:10.454Z,100323.97
2022-11-09T16:35:29.168Z,100327.31
2022-11-09T16:38:54.104Z,100327.56
2022-11-09T16:42:18.659Z,100329.47
2022-11-09T16:45:46.871Z,100332.78
2022-11-09T16:49:08.707Z,100331.13
2022-11-09T16:52:30.276Z,100335.38
2022-11-09T16:55:51.874Z,100336.41
2022-11-09T16:59:14.786Z,100317.41
2022-11-09T17:02:36.822Z,100321.81
2022-11-09T17:06:01.579Z,100332.75
2022-11-09T17:09:23.298Z,100326.97
2022-11-09T17:12:45.137Z,100327.22
2022-11-09T17:16:10.794Z,100337.47
2022-11-09T17:19:33.207Z,100333.91
2022-11-09T17:22:54.753Z,100336.06
2022-11-09T17:26:16.949Z,100339.13
2022-11-09T17:29:39.733Z,100340.09
2022-11-09T17:33:02.614Z,100327.94
2022-11-09T17:36:48.841Z,100338.38
2022-11-09T17:40:08.250Z,100330.91
2022-11-09T17:43:31.266Z,100332.31
2022-11-09T17:46:52.844Z,100328.00
2022-11-09T17:50:16.825Z,100335.13
2022-11-09T17:53:38.761Z,100347.34
2022-11-09T17:57:02.377Z,100351.88
2022-11-09T18:00:24.724Z,100357.09
2022-11-09T18:03:46.605Z,100356.06
2022-11-09T18:07:09.967Z,100365.50
2022-11-09T18:10:31.426Z,100374.78
2022-11-09T18:13:53.026Z,100378.41
2022-11-09T18:17:14.678Z,100374.97
2022-11-09T18:20:38.760Z,100383.75
2022-11-09T18:24:01.802Z,100386.38
2022-11-09T18:27:28.972Z,100395.50
2022-11-09T18:30:51.974Z,100400.31
2022-11-09T18:34:13.565Z,100405.31
2022-11-09T18:37:36.300Z,100399.38
2022-11-09T18:41:02.369Z,100384.88
2022-11-09T18:44:24.434Z,100392.22
2022-11-09T18:47:49.191Z,100389.13
2022-11-09T18:51:12.760Z,100387.47
2022-11-09T18:54:35.569Z,100396.94
2022-11-09T18:57:58.582Z,100390.63
2022-11-09T19:01:23.495Z,100391.69
2022-11-09T19:04:45.981Z,100403.78
2022-11-09T19:08:09.557Z,100406.50
2022-11-09T19:11:32.428Z,100409.22
2022-11-09T19:14:55.831Z,100403.06
2022-11-09T19:18:18.012Z,100414.13
2022-11-09T19:21:42.674Z,100417.84
2022-11-09T19:25:04.498Z,100422.13
2022-11-09T19:28:26.545Z,100428.78
2022-11-09T19:31:49.710Z,100427.38
2022-11-09T19:35:11.585Z,100430.19
2022-11-09T19:38:33.179Z,100430.34
2022-11-09T19:41:54.784Z,100438.97
2022-11-09T19:45:17.197Z,100443.50
2022-11-09T19:48:45.476Z,100430.19
2022-11-09T19:52:07.470Z,100425.72
2022-11-09T19:55:29.670Z,100436.63
2022-11-09T19:58:54.020Z,100437.94
2022-11-09T20:02:16.118Z,100450.38
2022-11-09T20:05:39.286Z,100454.16
2022-11-09T20:09:01.531Z,100466.03
2022-11-09T20:12:40.943Z,100456.56
2022-11-09T20:16:04.085Z,100467.47
2022-11-09T20:19:25.532Z,100469.94
2022-11-09T20:22:48.567Z,100476.22
2022-11-09T20:26:13.258Z,100483.47
2022-11-09T20:29:35.289Z,100483.56
2022-11-09T20:32:57.313Z,100479.41
2022-11-09T20:36:19.710Z,100484.28
2022-11-09T20:39:45.298Z,100490.78
2022-11-09T20:43:07.108Z,100487.09
2022-11-09T20:46:34.510Z,100497.63
2022-11-09T20:49:58.490Z,100489.56
2022-11-09T20:53:23.608Z,100492.88
2022-11-09T20:56:46.981Z,100492.25
2022-11-09T21:00:10.778Z,100500.78
2022-11-09T21:03:32.632Z,100511.06
2022-11-09T21:06:54.747Z,100507.03
2022-11-09T21:10:16.663Z,100498.84
2022-11-09T21:13:41.295Z,100508.44
2022-11-09T21:17:03.086Z,100497.59
2022-11-09T21:20:25.179Z,100498.66
2022-11-09T21:24:04.535Z,100496.63
2022-11-09T21:27:44.213Z,100503.31
2022-11-09T21:31:10.628Z,100487.94
2022-11-09T21:34:36.517Z,100481.97
2022-11-09T21:37:58.957Z,100483.06
2022-11-09T21:41:38.277Z,100490.38
2022-11-09T21:44:59.856Z,100495.91
2022-11-09T21:48:22.996Z,100487.19
2022-11-09T21:51:44.510Z,100480.56
2022-11-09T21:55:06.904Z,100487.44
2022-11-09T21:58:28.485Z,100484.94
2022-11-09T22:01:50.005Z,100491.19
2022-11-09T22:05:13.127Z,100489.28
2022-11-09T22:08:37.273Z,100496.63
2022-11-09T22:12:19.718Z,100489.59
2022-11-09T22:15:58.810Z,100489.41
2022-11-09T22:19:38.177Z,100506.66
2022-11-09T22:23:05.899Z,100515.38
2022-11-09T22:26:28.378Z,100504.56
2022-11-09T22:29:50.002Z,100512.50
2022-11-09T22:33:11.439Z,100506.63
2022-11-09T22:36:32.765Z,100515.53
2022-11-09T22:39:55.844Z,100514.72
2022-11-09T22:43:17.567Z,100524.34
2022-11-09T22:46:39.907Z,100534.06
2022-11-09T22:50:01.874Z,100545.91
2022-11-09T22:53:23.961Z,100558.47
2022-11-09T22:56:49.032Z,100576.53
2022-11-09T23:00:15.396Z,100586.34
2022-11-09T23:03:37.209Z,100601.19
2022-11-09T23:06:58.773Z,100622.19
2022-11-09T23:10:20.448Z,100632.84
2022-11-09T23:13:44.595Z,100640.81
2022-11-09T23:17:26.665Z,100661.91
2022-11-09T23:20:49.275Z,100675.19
2022-11-09T23:24:31.492Z,100687.06
2022-11-09T23:27:53.590Z,100701.22
2022-11-09T23:31:23.533Z,100719.59
2022-11-09T23:34:45.052Z,100730.22
2022-11-09T23:38:07.462Z,100728.38
2022-11-09T23:41:30.302Z,100740.16
2022-11-09T23:44:52.097Z,100755.47
2022-11-09T23:48:18.459Z,100771.31
2022-11-09T23:51:40.285Z,100788.69
2022-11-09T23:55:01.889Z,100811.50
2022-11-09T23:58:23.815Z,100828.34
